Time;durP1;ratioP1;P1;durP2;ratioP2;P2;SDS_P1;SDS_P2;PMS_P1;PMS_P2;Temp;Humidity;BMP_temperature;BMP_pressure;BME280_temperature;BME280_humidity;BME280_pressure;Samples;Min_cycle;Max_cycle;Signal;HPM_P1;HPM_P2
2023/05/04 00:01:42;;;;;;;16.83;11.40;;;;;;;6.20;69.08;102211.25;4909866;29;19919;-81
2023/05/04 00:04:07;;;;;;;21.23;11.57;;;;;;;6.13;69.40;102205.59;4913765;29;20040;-81
2023/05/04 00:06:33;;;;;;;;;;;;;;;6.13;69.40;102205.59;4924263;29;20413;-81
2023/05/04 00:08:58;;;;;;;18.63;11.27;;;;;;;6.10;69.64;102203.19;4912710;29;19923;-81
2023/05/04 00:11:23;;;;;;;;;;;;;;;6.05;69.73;102194.72;4892928;29;20043;-81
2023/05/04 00:13:49;;;;;;;21.97;11.10;;;;;;;5.98;69.94;102185.53;4920108;29;19924;-81
2023/05/04 00:16:14;;;;;;;;;;;;;;;5.95;70.18;102185.78;4910745;29;20055;-80
2023/05/04 00:18:39;;;;;;;15.73;11.63;;;;;;;5.92;70.75;102187.75;4907283;29;19927;-81
2023/05/04 00:21:05;;;;;;;;;;;;;;;5.96;70.44;102188.31;4908732;29;20055;-81
2023/05/04 00:23:30;;;;;;;16.60;10.75;;;;;;;5.88;70.28;102180.13;4906547;29;19927;-80
2023/05/04 00:25:57;;;;;;;17.13;10.73;;;;;;;5.90;70.59;102183.53;4897107;29;20036;-79
2023/05/04 00:28:24;;;;;;;16.20;10.63;;;;;;;5.90;70.75;102173.66;4921459;29;20330;-80
2023/05/04 00:30:52;;;;;;;15.40;10.85;;;;;;;5.88;71.08;102180.13;4914855;29;20040;-81
2023/05/04 00:33:17;;;;;;;19.23;10.68;;;;;;;5.85;71.24;102175.06;4913016;29;20070;-80
2023/05/04 00:35:42;;;;;;;;;;;;;;;5.82;70.88;102160.16;4928131;29;20040;-81
2023/05/04 00:38:08;;;;;;;19.00;11.27;;;;;;;5.80;71.40;102172.78;4922672;29;20306;-80
2023/05/04 00:40:34;;;;;;;;;;;;;;;5.73;71.36;102161.78;4922878;29;20061;-80
2023/05/04 00:43:00;;;;;;;16.70;10.50;;;;;;;5.68;71.36;102163.13;4913937;29;20335;-79
2023/05/04 00:45:26;;;;;;;17.25;10.27;;;;;;;5.66;71.51;102147.25;4906105;29;20140;-80
2023/05/04 00:47:52;;;;;;;14.18;9.95;;;;;;;5.63;71.54;102152.84;4870581;29;20079;-78
2023/05/04 00:50:18;;;;;;;18.65;11.02;;;;;;;5.64;72.26;102151.03;4909990;29;20083;-79
2023/05/04 00:52:45;;;;;;;18.55;11.30;;;;;;;5.65;71.53;102142.06;4910752;29;20044;-80
2023/05/04 00:55:11;;;;;;;16.70;10.25;;;;;;;5.61;72.10;102144.97;4877503;29;20587;-78
2023/05/04 00:57:36;;;;;;;15.63;10.60;;;;;;;5.57;72.22;102135.53;4919545;29;20122;-78
2023/05/04 01:00:02;;;;;;;13.82;10.35;;;;;;;5.58;72.58;102139.91;4893014;29;20044;-78
2023/05/04 01:02:30;;;;;;;18.75;10.75;;;;;;;5.58;72.23;102129.22;4896988;29;20051;-78
2023/05/04 01:04:55;;;;;;;18.40;10.25;;;;;;;5.56;72.38;102125.00;4911004;29;20035;-78
2023/05/04 01:07:27;;;;;;;14.43;10.13;;;;;;;5.49;72.15;102131.84;4900665;29;20063;-78
2023/05/04 01:10:03;;;;;;;19.40;11.00;;;;;;;5.48;72.80;102128.28;4909219;29;20039;-78
2023/05/04 01:12:46;;;;;;;20.75;10.82;;;;;;;5.44;72.54;102129.56;4895958;29;20050;-79
2023/05/04 01:15:13;;;;;;;17.23;10.73;;;;;;;5.42;73.04;102121.66;4889921;29;20044;-78
2023/05/04 01:17:39;;;;;;;15.30;10.70;;;;;;;5.40;72.88;102120.09;4887631;29;20127;-78
2023/05/04 01:20:06;;;;;;;15.27;10.32;;;;;;;5.39;72.77;102121.09;4898950;29;20123;-79
2023/05/04 01:22:31;;;;;;;15.30;10.75;;;;;;;5.34;73.55;102120.63;4907736;29;20071;-79
2023/05/04 01:24:57;;;;;;;15.60;10.27;;;;;;;5.29;73.25;102111.22;4896080;29;20142;-79
2023/05/04 01:27:30;;;;;;;16.30;9.93;;;;;;;5.27;73.13;102118.50;4869998;29;20051;-80
2023/05/04 01:30:01;;;;;;;16.83;11.63;;;;;;;5.28;73.99;102109.50;4890464;29;20451;-79
2023/05/04 01:32:27;;;;;;;13.45;10.25;;;;;;;5.25;73.58;102117.78;4907177;29;20481;-79
2023/05/04 01:34:58;;;;;;;14.18;10.13;;;;;;;5.21;73.51;102108.31;4913568;29;20044;-79
2023/05/04 01:37:24;;;;;;;16.90;10.65;;;;;;;5.25;74.03;102104.44;4905896;29;21531;-80
2023/05/04 01:39:50;;;;;;;14.65;10.77;;;;;;;5.23;73.80;102100.19;4895619;29;20044;-78
2023/05/04 01:42:16;;;;;;;18.33;10.27;;;;;;;5.21;73.54;102100.31;4916486;29;20447;-78
2023/05/04 01:44:44;;;;;;;14.07;9.93;;;;;;;5.21;73.78;102102.13;4920659;29;20487;-78
2023/05/04 01:47:09;;;;;;;16.30;10.48;;;;;;;5.19;73.41;102099.59;4889135;29;20141;-79
2023/05/04 01:49:35;;;;;;;16.58;9.88;;;;;;;5.17;73.47;102101.56;4912712;29;20048;-78
2023/05/04 01:52:00;;;;;;;;;;;;;;;5.19;73.84;102104.94;4896954;29;20519;-79
2023/05/04 01:54:25;;;;;;;15.60;10.30;;;;;;;5.20;73.33;102092.44;4917609;29;19978;-78
2023/05/04 01:56:51;;;;;;;;;;;;;;;5.18;73.35;102107.75;4896365;29;20119;-79
2023/05/04 01:59:16;;;;;;;14.07;9.80;;;;;;;5.10;73.48;102103.06;4879657;29;19963;-79
2023/05/04 02:01:41;;;;;;;;;;;;;;;5.06;73.78;102115.81;4916825;29;20047;-78
2023/05/04 02:04:07;;;;;;;16.60;9.73;;;;;;;5.01;74.57;102096.69;4932031;29;20339;-78
2023/05/04 02:06:32;;;;;;;;;;;;;;;5.03;73.93;102099.22;4923788;29;20138;-78
2023/05/04 02:08:58;;;;;;;19.63;10.43;;;;;;;4.96;74.33;102101.56;4908308;29;19923;-79
2023/05/04 02:11:25;;;;;;;13.93;9.83;;;;;;;4.95;74.02;102098.03;4899512;29;20661;-79
2023/05/04 02:13:50;;;;;;;17.83;10.50;;;;;;;4.91;74.21;102096.59;4917970;29;20295;-79
2023/05/04 02:16:15;;;;;;;17.45;10.57;;;;;;;4.94;74.50;102100.81;4923101;29;20542;-79
2023/05/04 02:18:41;;;;;;;15.18;10.05;;;;;;;4.92;74.63;102087.63;4907568;29;20051;-79
2023/05/04 02:21:06;;;;;;;17.97;10.57;;;;;;;4.90;74.49;102092.25;4918531;29;20150;-78
2023/05/04 02:23:32;;;;;;;18.25;10.40;;;;;;;4.86;74.37;102101.47;4922213;29;20048;-79
2023/05/04 02:25:57;;;;;;;13.73;10.53;;;;;;;4.86;74.04;102090.81;4922430;29;20544;-79
2023/05/04 02:28:22;;;;;;;14.47;9.63;;;;;;;4.84;74.64;102084.75;4917152;29;20306;-79
2023/05/04 02:30:47;;;;;;;;;;;;;;;4.80;74.77;102092.16;4922089;29;20050;-79
2023/05/04 02:33:13;;;;;;;15.23;10.10;;;;;;;4.83;74.41;102089.25;4902441;29;19998;-79
2023/05/04 02:35:38;;;;;;;15.23;9.93;;;;;;;4.81;75.00;102083.19;4917474;29;20040;-79
2023/05/04 02:38:04;;;;;;;16.02;10.05;;;;;;;4.81;75.13;102082.31;4897185;29;20044;-79
2023/05/04 02:40:29;;;;;;;14.57;10.27;;;;;;;4.79;74.92;102089.59;4915624;29;20480;-79
2023/05/04 02:42:56;;;;;;;16.27;10.05;;;;;;;4.74;74.84;102081.16;4932065;29;20044;-79
2023/05/04 02:45:21;;;;;;;16.92;10.95;;;;;;;4.67;74.90;102078.16;4909521;29;20048;-79
2023/05/04 02:47:46;;;;;;;16.97;10.47;;;;;;;4.65;75.59;102080.94;4917292;29;20048;-79
2023/05/04 02:50:12;;;;;;;17.53;10.73;;;;;;;4.64;75.86;102078.41;4923875;29;20284;-80
2023/05/04 02:52:37;;;;;;;18.48;10.48;;;;;;;4.63;75.87;102077.56;4923197;29;20082;-80
2023/05/04 02:55:03;;;;;;;16.73;10.10;;;;;;;4.60;75.72;102077.81;4923777;29;20099;-79
2023/05/04 02:57:28;;;;;;;14.60;10.23;;;;;;;4.59;75.39;102076.09;4879267;29;20048;-80
2023/05/04 02:59:53;;;;;;;13.98;10.38;;;;;;;4.56;75.90;102071.06;4909452;29;20047;-79
2023/05/04 03:02:19;;;;;;;15.32;9.60;;;;;;;4.57;75.89;102072.75;4915387;29;20495;-79
2023/05/04 03:04:44;;;;;;;14.68;9.80;;;;;;;4.58;75.32;102071.78;4922270;29;20854;-80
2023/05/04 03:07:10;;;;;;;16.80;10.33;;;;;;;4.53;75.71;102065.97;4919131;29;20678;-79
2023/05/04 03:09:36;;;;;;;18.23;10.77;;;;;;;4.49;76.04;102061.84;4882565;29;20350;-79
2023/05/04 03:12:02;;;;;;;16.40;9.10;;;;;;;4.51;75.86;102063.41;4897665;29;20082;-76
2023/05/04 03:14:28;;;;;;;18.08;10.52;;;;;;;4.48;75.66;102058.34;4897393;29;20130;-76
2023/05/04 03:16:53;;;;;;;15.25;10.30;;;;;;;4.49;76.29;102059.19;4907175;29;20054;-76
2023/05/04 03:19:20;;;;;;;;;;;;;;;4.47;75.73;102061.13;4915042;29;20044;-75
2023/05/04 03:21:46;;;;;;;13.20;9.40;;;;;;;4.44;75.45;102056.03;4920060;29;19922;-75
2023/05/04 03:24:11;;;;;;;16.02;9.55;;;;;;;4.39;76.25;102057.28;4922206;29;20047;-76
2023/05/04 03:26:37;;;;;;;15.20;10.20;;;;;;;4.37;75.77;102061.91;4921075;29;20433;-76
2023/05/04 03:29:02;;;;;;;15.33;10.17;;;;;;;4.37;75.94;102061.03;4918503;29;20307;-76
2023/05/04 03:31:27;;;;;;;14.57;10.00;;;;;;;4.36;76.20;102065.53;4914701;29;20683;-76
2023/05/04 03:33:53;;;;;;;13.73;9.95;;;;;;;4.37;76.62;102055.72;4923014;29;20039;-76
2023/05/04 03:36:18;;;;;;;20.73;11.40;;;;;;;4.40;76.50;102051.00;4911526;29;20050;-76
2023/05/04 03:38:43;;;;;;;16.53;10.37;;;;;;;4.33;76.56;102057.78;4921451;29;20091;-76
2023/05/04 03:41:09;;;;;;;15.17;9.67;;;;;;;4.31;76.70;102058.91;4915438;29;20296;-76
2023/05/04 03:43:34;;;;;;;17.85;10.90;;;;;;;4.33;76.71;102055.13;4915840;29;20279;-76
2023/05/04 03:46:00;;;;;;;14.60;10.30;;;;;;;4.32;76.08;102060.59;4913870;29;20044;-76
2023/05/04 03:48:25;;;;;;;17.07;10.30;;;;;;;4.28;76.68;102059.16;4909239;29;20792;-77
2023/05/04 03:50:51;;;;;;;14.57;10.48;;;;;;;4.22;77.05;102052.50;4910999;29;20289;-76
2023/05/04 03:53:17;;;;;;;15.80;10.10;;;;;;;4.20;76.61;102062.44;4892084;29;20047;-76
2023/05/04 03:55:43;;;;;;;;;;;;;;;4.24;76.45;102055.84;4905223;29;20551;-76
2023/05/04 03:58:09;;;;;;;14.95;9.27;;;;;;;4.19;76.76;102050.06;4920474;29;19926;-76
2023/05/04 04:00:34;;;;;;;17.40;10.83;;;;;;;4.17;77.45;102049.34;4911235;29;20059;-76
2023/05/04 04:03:02;;;;;;;15.15;10.18;;;;;;;4.17;77.45;102052.84;4875067;29;20040;-76
2023/05/04 04:05:27;;;;;;;19.48;10.32;;;;;;;4.21;76.67;102056.13;4911216;29;20534;-77
2023/05/04 04:07:53;;;;;;;16.90;11.00;;;;;;;4.24;77.13;102055.84;4916981;29;20036;-76
2023/05/04 04:10:18;;;;;;;16.57;10.50;;;;;;;4.28;76.40;102048.47;4902919;29;22011;-77
2023/05/04 04:12:44;;;;;;;15.80;9.98;;;;;;;4.32;76.33;102042.75;4896249;29;20055;-76
2023/05/04 04:15:09;;;;;;;17.15;11.55;;;;;;;4.34;76.07;102048.81;4907249;29;20043;-76
2023/05/04 04:17:36;;;;;;;16.55;11.00;;;;;;;4.33;75.98;102047.13;4919694;29;20040;-76
2023/05/04 04:20:02;;;;;;;17.30;11.05;;;;;;;4.37;76.35;102045.91;4911413;29;20502;-76
2023/05/04 04:22:27;;;;;;;19.02;11.50;;;;;;;4.37;76.41;102045.03;4902934;29;20091;-76
2023/05/04 04:24:53;;;;;;;15.63;10.50;;;;;;;4.36;75.77;102032.69;4909933;29;20046;-76
2023/05/04 04:27:18;;;;;;;14.05;10.10;;;;;;;4.40;75.67;102029.66;4891506;29;20342;-76
2023/05/04 04:29:44;;;;;;;15.73;10.18;;;;;;;4.42;75.91;102026.00;4897319;29;20051;-76
2023/05/04 04:32:09;;;;;;;;;;;;;;;4.44;76.16;102026.72;4911334;29;20048;-76
2023/05/04 04:34:38;;;;;;;16.83;10.35;;;;;;;4.46;75.67;102027.44;4901401;29;19982;-76
2023/05/04 04:37:06;;;;;;;20.08;11.02;;;;;;;4.47;75.70;102034.47;4914719;29;20518;-76
2023/05/04 04:39:32;;;;;;;16.88;11.05;;;;;;;4.51;75.53;102033.25;4918672;29;20055;-76
2023/05/04 04:41:57;;;;;;;17.80;11.60;;;;;;;4.53;75.75;102028.63;4917293;29;20411;-76
2023/05/04 04:44:23;;;;;;;14.40;10.23;;;;;;;4.60;75.49;102027.13;4913439;29;20507;-76
2023/05/04 04:46:48;;;;;;;16.30;10.37;;;;;;;4.65;74.93;102024.94;4914135;29;20103;-76
2023/05/04 04:49:16;;;;;;;18.95;11.35;;;;;;;4.73;74.44;102028.78;4914228;29;20284;-76
2023/05/04 04:51:42;;;;;;;15.55;10.77;;;;;;;4.77;74.85;102030.19;4924600;29;20040;-77
2023/05/04 04:54:07;;;;;;;16.75;11.40;;;;;;;4.85;74.91;102033.06;4908975;29;20449;-77
2023/05/04 04:56:32;;;;;;;18.00;11.13;;;;;;;4.97;74.58;102024.00;4915242;29;20040;-78
2023/05/04 04:59:01;;;;;;;14.90;10.10;;;;;;;5.14;74.03;102027.06;4925779;29;20307;-80
2023/05/04 05:01:26;;;;;;;16.70;11.30;;;;;;;5.34;73.00;102037.84;4913525;29;20891;-81
2023/05/04 05:03:52;;;;;;;15.13;10.20;;;;;;;5.49;72.13;102025.81;4927397;29;20056;-80
2023/05/04 05:06:17;;;;;;;12.70;9.73;;;;;;;5.73;71.72;102024.66;4920233;29;20080;-79
2023/05/04 05:08:46;;;;;;;13.85;9.52;;;;;;;5.98;71.41;102019.81;4914820;29;20278;-82
2023/05/04 05:11:12;;;;;;;14.73;9.90;;;;;;;6.34;69.50;102028.19;4901880;29;20050;-80
2023/05/04 05:13:37;;;;;;;;;;;;;;;6.86;67.87;102032.41;4918672;29;20048;-81
2023/05/04 05:16:02;;;;;;;13.93;9.50;;;;;;;7.07;66.84;102025.00;4925868;29;19922;-82
2023/05/04 05:18:28;;;;;;;;;;;;;;;7.04;66.66;102028.00;4899980;29;20123;-82
2023/05/04 05:20:55;;;;;;;14.98;9.35;;;;;;;7.17;66.44;102032.19;4920655;29;20298;-79
2023/05/04 05:23:20;;;;;;;14.02;9.93;;;;;;;7.20;65.78;102031.91;4923075;29;20118;-81
2023/05/04 05:25:46;;;;;;;;;;;;;;;7.12;66.56;102025.41;4917989;29;20036;-79
2023/05/04 05:28:14;;;;;;;13.55;9.80;;;;;;;7.04;66.71;102017.28;4927494;29;20244;-80
2023/05/04 05:30:44;;;;;;;13.55;9.43;;;;;;;7.36;65.77;102025.91;4917761;29;20032;-81
2023/05/04 05:33:09;;;;;;;15.23;10.23;;;;;;;7.19;66.41;102024.84;4927006;29;20079;-79
2023/05/04 05:35:35;;;;;;;;;;;;;;;7.34;66.40;102025.22;4919204;29;20036;-82
2023/05/04 05:38:00;;;;;;;17.27;9.57;;;;;;;7.55;65.29;102019.63;4913538;29;20482;-81
2023/05/04 05:40:26;;;;;;;;;;;;;;;7.80;64.98;102020.78;4929227;29;20507;-82
2023/05/04 05:42:51;;;;;;;12.80;8.80;;;;;;;8.04;64.67;102025.56;4895992;29;19930;-81
2023/05/04 05:45:18;;;;;;;;;;;;;;;8.30;62.97;102022.13;4909491;29;20059;-82
2023/05/04 05:47:43;;;;;;;12.70;8.38;;;;;;;8.33;62.76;102029.03;4917814;29;19931;-81
2023/05/04 05:50:08;;;;;;;;;;;;;;;8.39;62.67;102032.94;4911454;29;20551;-79
2023/05/04 05:52:34;;;;;;;10.80;8.50;;;;;;;8.39;62.43;102027.59;4922430;29;19922;-80
2023/05/04 05:54:59;;;;;;;;;;;;;;;8.61;62.09;102024.47;4908291;29;20048;-81
2023/05/04 05:57:25;;;;;;;9.68;7.20;;;;;;;8.66;61.89;102018.63;4925016;29;20387;-81
2023/05/04 05:59:51;;;;;;;17.38;8.50;;;;;;;8.75;61.05;102019.53;4892978;29;20115;-80
2023/05/04 06:02:16;;;;;;;;;;;;;;;9.05;61.24;102012.03;4899529;29;20052;-81
2023/05/04 06:04:43;;;;;;;10.80;7.70;;;;;;;9.39;60.49;102008.50;4892017;29;20386;-82
2023/05/04 06:07:09;;;;;;;9.93;7.53;;;;;;;9.74;58.02;102003.94;4887665;29;20095;-82
2023/05/04 06:09:35;;;;;;;10.30;7.82;;;;;;;10.18;57.62;102013.66;4927984;29;20051;-79
2023/05/04 06:12:00;;;;;;;10.93;8.40;;;;;;;10.72;56.20;102009.66;4910442;29;20524;-80
2023/05/04 06:14:26;;;;;;;10.68;6.97;;;;;;;11.32;54.52;102002.97;4871996;29;20113;-82
2023/05/04 06:16:51;;;;;;;11.50;7.15;;;;;;;11.90;52.51;102010.00;4872952;29;20620;-82
2023/05/04 06:19:17;;;;;;;8.27;7.15;;;;;;;11.70;52.84;102001.50;4901700;29;20058;-82
2023/05/04 06:21:44;;;;;;;9.15;7.15;;;;;;;12.34;51.51;102003.16;4906442;29;20040;-82
2023/05/04 06:24:09;;;;;;;10.38;6.82;;;;;;;12.43;51.22;101994.81;4865484;29;20054;-83
2023/05/04 06:26:35;;;;;;;8.60;6.35;;;;;;;13.15;48.92;101989.06;4896427;29;20432;-80
2023/05/04 06:31:51;;;;;;;10.57;6.78;;;;;;;13.31;47.98;101986.19;5035445;23;20056;-84
2023/05/04 06:34:16;;;;;;;17.55;7.45;;;;;;;12.96;49.06;102003.97;4879362;29;20124;-81
2023/05/04 06:36:45;;;;;;;10.15;7.13;;;;;;;13.68;48.02;102005.19;4883104;29;20061;-84
2023/05/04 06:39:16;;;;;;;12.75;6.78;;;;;;;13.27;48.17;101993.00;4898988;29;20048;-86
2023/05/04 06:41:42;;;;;;;9.52;6.30;;;;;;;13.75;47.14;101998.00;4884388;29;20044;-86
2023/05/04 06:44:07;;;;;;;10.48;6.70;;;;;;;13.29;47.63;101996.34;4857450;29;20047;-85
2023/05/04 06:46:40;;;;;;;8.20;7.15;;;;;;;13.36;48.18;101996.44;4885242;29;20509;-82
2023/05/04 06:49:06;;;;;;;10.10;6.55;;;;;;;13.97;46.81;101997.19;4893265;29;20394;-81
2023/05/04 06:51:31;;;;;;;7.22;6.07;;;;;;;14.10;46.32;101990.06;4897078;29;20135;-81
2023/05/04 06:53:56;;;;;;;7.35;5.78;;;;;;;14.47;45.96;101991.88;4891304;29;20041;-80
2023/05/04 06:56:24;;;;;;;7.80;6.50;;;;;;;14.19;46.41;101995.34;4894431;29;20044;-80
2023/05/04 06:58:50;;;;;;;9.07;6.43;;;;;;;14.16;46.67;101996.56;4883270;29;20066;-79
2023/05/04 07:04:38;;;;;;;9.80;6.82;;;;;;;14.19;46.86;102003.47;4895978;23;20071;-81
2023/05/04 07:07:04;;;;;;;10.80;5.97;;;;;;;14.31;45.94;102001.91;4887759;29;20048;-80
2023/05/04 07:09:29;;;;;;;9.25;5.57;;;;;;;15.61;43.66;101998.88;4884789;29;20048;-80
2023/05/04 07:11:55;;;;;;;7.05;6.10;;;;;;;15.89;43.13;101991.69;4905577;29;20404;-81
2023/05/04 07:14:20;;;;;;;7.88;6.18;;;;;;;16.31;42.23;101986.13;4896572;29;20067;-83
2023/05/04 07:16:46;;;;;;;7.78;6.20;;;;;;;17.28;40.21;101986.47;4876294;29;21880;-79
2023/05/04 07:19:11;;;;;;;7.45;6.15;;;;;;;17.32;39.91;101986.06;4872962;29;20045;-83
2023/05/04 07:21:37;;;;;;;9.23;5.70;;;;;;;17.71;39.18;101989.69;4874872;29;20172;-83
2023/05/04 07:24:03;;;;;;;8.27;5.68;;;;;;;16.92;40.03;101986.97;4891327;29;20044;-83
2023/05/04 07:26:31;;;;;;;7.85;5.30;;;;;;;17.12;40.07;101976.06;4907263;29;20042;-83
2023/05/04 07:28:56;;;;;;;7.25;5.32;;;;;;;17.29;40.00;101965.56;4876558;29;20064;-83
2023/05/04 07:31:22;;;;;;;7.45;5.68;;;;;;;17.64;39.48;101975.25;4887848;29;20066;-82
2023/05/04 07:33:48;;;;;;;8.50;5.50;;;;;;;17.29;39.39;101976.44;4877708;29;20543;-81
2023/05/04 07:36:13;;;;;;;5.57;5.07;;;;;;;17.96;38.42;101972.56;4880811;29;20053;-81
2023/05/04 07:45:27;;;;;;;8.45;5.57;;;;;;;18.27;37.63;101960.00;4872396;29;20048;-80
2023/05/04 07:47:52;;;;;;;7.72;5.40;;;;;;;18.82;36.65;101967.50;4891096;29;20040;-80
2023/05/04 07:50:17;;;;;;;8.82;5.40;;;;;;;18.44;37.15;101965.75;4906979;29;20066;-79
2023/05/04 07:52:45;;;;;;;6.78;4.70;;;;;;;19.07;36.54;101963.91;4907991;29;20040;-78
2023/05/04 07:55:13;;;;;;;7.05;5.50;;;;;;;19.11;36.16;101961.56;4910108;29;20507;-81
2023/05/04 07:57:38;;;;;;;8.88;5.20;;;;;;;19.51;35.68;101956.47;4922339;29;20048;-80
2023/05/04 08:00:04;;;;;;;6.47;5.68;;;;;;;19.57;35.53;101954.69;4913395;29;20563;-80
2023/05/04 08:02:30;;;;;;;5.90;5.28;;;;;;;19.57;35.38;101951.16;4906799;29;20464;-79
2023/05/04 08:04:55;;;;;;;7.30;5.05;;;;;;;20.44;34.66;101949.84;4905505;29;20048;-80
2023/05/04 08:07:21;;;;;;;10.65;5.22;;;;;;;21.11;33.83;101945.91;4914092;29;20044;-79
2023/05/04 08:09:47;;;;;;;11.23;5.00;;;;;;;21.19;33.09;101947.44;4908553;29;20127;-80
2023/05/04 08:12:13;;;;;;;7.20;5.20;;;;;;;21.74;32.08;101945.25;4914253;29;20052;-78
2023/05/04 08:14:39;;;;;;;9.10;5.40;;;;;;;22.13;31.44;101942.66;4912074;29;20062;-80
2023/05/04 08:17:07;;;;;;;6.10;4.95;;;;;;;22.56;30.55;101948.56;4909589;29;20052;-81
2023/05/04 08:19:32;;;;;;;6.93;5.10;;;;;;;22.83;30.44;101945.13;4906990;29;20147;-81
2023/05/04 08:21:58;;;;;;;6.85;5.00;;;;;;;21.43;32.76;101936.41;4918238;29;20134;-81
2023/05/04 08:24:23;;;;;;;8.90;4.85;;;;;;;22.23;31.15;101948.31;4890106;29;20052;-81
2023/05/04 08:26:49;;;;;;;4.72;4.22;;;;;;;21.58;31.53;101931.22;4901129;29;20096;-82
2023/05/04 08:29:14;;;;;;;7.38;5.00;;;;;;;22.18;30.53;101934.50;4896027;29;20048;-80
2023/05/04 08:31:40;;;;;;;6.00;4.63;;;;;;;21.93;31.19;101930.25;4895324;29;20044;-81
2023/05/04 08:34:06;;;;;;;7.22;4.70;;;;;;;22.22;31.29;101927.44;4905650;29;20040;-81
2023/05/04 08:36:31;;;;;;;6.68;4.63;;;;;;;21.69;30.63;101925.97;4914647;29;20409;-81
2023/05/04 08:38:58;;;;;;;8.27;4.63;;;;;;;21.56;30.80;101925.16;4925971;29;20056;-79
2023/05/04 08:41:23;;;;;;;6.53;4.53;;;;;;;21.59;31.30;101924.66;4916711;29;20050;-81
2023/05/04 08:43:49;;;;;;;6.90;4.95;;;;;;;21.57;31.17;101926.81;4905200;29;20539;-81
2023/05/04 08:46:15;;;;;;;9.23;5.25;;;;;;;22.50;30.89;101931.19;4907110;29;20123;-81
2023/05/04 08:48:43;;;;;;;10.32;5.40;;;;;;;22.98;30.22;101928.00;4919535;29;20084;-79
2023/05/04 08:51:08;;;;;;;10.50;4.85;;;;;;;23.90;28.57;101927.41;4910735;29;20500;-80
2023/05/04 08:53:34;;;;;;;8.25;4.60;;;;;;;24.59;27.13;101917.47;4895783;29;20055;-79
2023/05/04 08:56:03;;;;;;;6.57;4.40;;;;;;;23.79;28.49;101912.72;4879771;29;20782;-82
2023/05/04 08:58:28;;;;;;;8.90;4.53;;;;;;;24.14;27.74;101916.09;4896867;29;20820;-79
2023/05/04 09:00:53;;;;;;;7.60;4.30;;;;;;;24.38;27.98;101905.53;4896725;29;20151;-79
2023/05/04 09:03:19;;;;;;;6.20;4.55;;;;;;;24.27;27.90;101901.88;4918848;29;20058;-81
2023/05/04 09:05:45;;;;;;;7.43;4.88;;;;;;;23.74;28.27;101899.75;4913992;29;20094;-79
2023/05/04 09:08:10;;;;;;;6.97;4.75;;;;;;;22.10;30.41;101894.63;4902371;29;20039;-79
2023/05/04 09:10:35;;;;;;;6.70;5.22;;;;;;;22.03;30.82;101893.13;4915468;29;20485;-79
2023/05/04 09:13:01;;;;;;;7.78;5.10;;;;;;;21.88;31.58;101891.78;4919770;29;20048;-79
2023/05/04 09:15:26;;;;;;;7.35;5.38;;;;;;;21.74;31.13;101880.31;4902462;29;20523;-78
2023/05/04 09:18:02;;;;;;;6.38;4.55;;;;;;;22.59;30.48;101879.47;4897790;29;20056;-79
2023/05/04 09:20:29;;;;;;;6.25;4.47;;;;;;;23.12;28.80;101877.09;4917199;29;20067;-78
2023/05/04 09:23:07;;;;;;;7.22;4.57;;;;;;;23.58;28.86;101876.78;4900776;29;20150;-80
2023/05/04 09:25:52;;;;;;;8.73;4.90;;;;;;;24.69;28.04;101878.16;4902937;29;20147;-79
2023/05/04 09:28:19;;;;;;;6.78;5.22;;;;;;;24.54;27.54;101873.41;4919617;29;20538;-79
2023/05/04 09:30:45;;;;;;;7.25;5.28;;;;;;;24.80;27.47;101870.81;4902074;29;20055;-81
2023/05/04 09:33:11;;;;;;;6.90;5.20;;;;;;;24.56;27.49;101875.91;4910495;29;20054;-79
2023/05/04 09:35:39;;;;;;;6.57;4.60;;;;;;;24.27;27.24;101884.53;4911255;29;20056;-79
2023/05/04 09:38:08;;;;;;;5.88;4.88;;;;;;;24.29;27.38;101876.84;4914145;29;20048;-79
2023/05/04 09:40:37;;;;;;;6.05;4.97;;;;;;;24.48;27.49;101880.00;4901943;29;20095;-78
2023/05/04 09:43:03;;;;;;;6.47;4.93;;;;;;;24.47;27.43;101876.41;4892771;29;20127;-79
2023/05/04 09:45:40;;;;;;;6.20;4.47;;;;;;;24.34;28.01;101865.88;4915934;29;20512;-79
2023/05/04 09:48:24;;;;;;;6.47;4.90;;;;;;;23.38;28.68;101869.19;4910323;29;20095;-78
2023/05/04 09:51:01;;;;;;;7.38;5.18;;;;;;;23.62;28.86;101874.38;4909784;29;20449;-79
2023/05/04 09:53:27;;;;;;;5.75;5.15;;;;;;;24.30;27.69;101857.31;4889638;29;20044;-80
2023/05/04 09:56:13;;;;;;;7.93;4.88;;;;;;;24.60;28.01;101853.06;4902719;29;20052;-80
2023/05/04 09:58:39;;;;;;;6.53;5.00;;;;;;;24.51;26.72;101849.19;4897256;29;20050;-79
2023/05/04 10:01:05;;;;;;;7.60;5.22;;;;;;;24.57;27.55;101853.59;4903516;29;20041;-79
2023/05/04 10:03:30;;;;;;;8.35;4.63;;;;;;;25.04;27.02;101853.84;4902528;29;20056;-80
2023/05/04 10:05:59;;;;;;;10.23;4.95;;;;;;;24.94;26.89;101851.88;4920162;29;20526;-80
2023/05/04 10:08:26;;;;;;;7.35;5.20;;;;;;;24.83;26.54;101843.56;4918403;29;20127;-79
2023/05/04 10:10:51;;;;;;;6.03;4.57;;;;;;;24.93;26.96;101841.97;4927117;29;20058;-80
2023/05/04 10:13:16;;;;;;;6.38;4.90;;;;;;;25.01;26.53;101841.41;4923784;29;20047;-79
2023/05/04 10:15:53;;;;;;;7.68;5.00;;;;;;;24.55;27.50;101824.69;4910024;29;20477;-79
2023/05/04 10:18:30;;;;;;;6.93;4.93;;;;;;;25.05;26.99;101815.00;4879803;29;20790;-81
2023/05/04 10:21:14;;;;;;;8.57;5.00;;;;;;;24.92;26.06;101823.78;4903430;29;20047;-80
2023/05/04 10:23:49;;;;;;;9.75;4.90;;;;;;;25.18;25.48;101808.13;4900744;29;20143;-79
2023/05/04 10:26:49;;;;;;;6.63;5.00;;;;;;;25.79;26.08;101808.47;4920612;29;20055;-79
2023/05/04 10:29:21;;;;;;;6.63;4.80;;;;;;;25.79;24.79;101809.28;4896702;29;20048;-80
2023/05/04 10:31:46;;;;;;;7.00;4.50;;;;;;;26.42;24.17;101801.72;4878806;29;20180;-80
2023/05/04 10:34:31;;;;;;;9.38;4.70;;;;;;;25.57;24.03;101795.78;4904177;29;20040;-80
2023/05/04 10:36:58;;;;;;;7.03;4.63;;;;;;;25.06;25.39;101799.31;4894471;29;20444;-79
2023/05/04 10:42:00;;;;;;;;;;;;;;;26.10;25.01;101797.38;5015512;23;20052;-79
2023/05/04 10:44:26;;;;;;;6.25;4.50;;;;;;;26.71;23.34;101790.00;4916242;29;19923;-80
2023/05/04 10:47:10;;;;;;;10.23;5.28;;;;;;;26.92;23.35;101788.81;4900665;29;20099;-80
2023/05/04 10:49:35;;;;;;;7.63;4.70;;;;;;;25.95;22.07;101774.22;4907652;29;20839;-81
2023/05/04 10:52:10;;;;;;;8.27;5.35;;;;;;;26.20;23.38;101780.00;4906095;29;20046;-80
2023/05/04 10:54:36;;;;;;;6.50;4.93;;;;;;;26.69;23.36;101776.47;4907161;29;20044;-80
2023/05/04 10:57:07;;;;;;;7.13;5.25;;;;;;;26.67;23.54;101778.69;4905883;29;20060;-80
2023/05/04 10:59:32;;;;;;;6.47;4.95;;;;;;;26.74;22.93;101770.13;4909133;29;20040;-87
2023/05/04 11:02:01;;;;;;;8.65;5.25;;;;;;;26.35;23.53;101766.13;4918984;29;20357;-88
2023/05/04 11:04:26;;;;;;;6.68;5.10;;;;;;;27.44;22.25;101771.03;4918573;29;20051;-85
2023/05/04 11:07:12;;;;;;;6.32;4.75;;;;;;;27.09;22.53;101762.75;4910959;29;20042;-83
2023/05/04 11:09:39;;;;;;;8.55;5.40;;;;;;;27.89;22.19;101748.78;4911111;29;20062;-84
2023/05/04 11:12:14;;;;;;;6.85;5.45;;;;;;;26.79;22.59;101759.03;4920744;29;20052;-83
2023/05/04 11:15:08;;;;;;;7.32;4.80;;;;;;;27.12;22.28;101740.03;4907828;29;20131;-83
2023/05/04 11:17:46;;;;;;;8.00;5.32;;;;;;;26.36;23.01;101734.66;4927580;29;20142;-83
2023/05/04 11:20:32;;;;;;;7.70;5.05;;;;;;;26.68;22.80;101721.53;4927180;29;20111;-82
2023/05/04 11:23:08;;;;;;;9.65;5.53;;;;;;;26.77;22.74;101728.09;4881778;29;20068;-83
2023/05/04 11:25:35;;;;;;;6.55;5.22;;;;;;;27.13;22.53;101724.28;4858737;29;20469;-83
2023/05/04 11:28:01;;;;;;;6.38;5.20;;;;;;;27.77;22.38;101730.66;4894359;29;20424;-83
2023/05/04 11:33:15;;;;;;;8.63;5.30;;;;;;;28.29;22.03;101719.81;5340534;23;20055;-81
2023/05/04 11:38:28;;;;;;;7.45;5.47;;;;;;;28.16;22.33;101706.72;4840046;29;20554;-82
2023/05/04 11:40:53;;;;;;;7.88;5.13;;;;;;;28.41;21.36;101707.50;4886214;29;20040;-82
2023/05/04 11:43:21;;;;;;;6.78;5.25;;;;;;;29.46;20.44;101703.69;4892331;29;20051;-81
2023/05/04 11:45:46;;;;;;;7.15;5.90;;;;;;;27.36;22.11;101690.34;4878975;29;20048;-81
2023/05/04 11:48:12;;;;;;;9.40;6.00;;;;;;;27.67;22.63;101683.72;4889511;29;20036;-81
2023/05/04 11:50:37;;;;;;;9.98;5.60;;;;;;;27.57;23.12;101681.06;4883635;29;20103;-81